weather.gov     
National Weather Service

Terminal Aerodrome Forecast
NWS Homepage
This page is being discontinued on March 12, 2014.
The same data is available at this site. Please update your bookmarks.
Thank you, and we apologize for the inconvenience.
Please send an email to SR-SRH.Webmaster@noaa.gov with any concerns.


Current Version
Previous Version:    01  02  03  04  05  06  07  08  09  10  11  12  13  14  15  16  17  18  19  20  21  22  23  24  25  26  27  28  29  30  
   31  32  33  34  35  36  37  38  39  40  41  42  43  
[Printable]
080
FTAK31 PAJN 020500
TAFASI
TAF
PASI 020530Z 0206/0306 09007KT P6SM FEW200
     FM021600 10008KT P6SM FEW100 SCT150
     FM022000 12015G25KT P6SM VCSH BKN050 OVC080 WS020/12035KT
     FM022300 12025G35KT 6SM -RA BKN035 OVC060 WS020/12045KT
     FM030200 13015G30KT 6SM -RA BKN020 OVC040 WS020/15035KT=


U.S. Dept. of Commerce
NOAA National Weather Service
1325 East West Highway
Silver Spring, MD 20910
E-mail: w-nws.webmaster@noaa.gov
Page last modified: May 16, 2007
NATIONAL WEATHER SERVICE: for Safety, for Work, for Fun - FOR LIFE